Legend Of The Seas — C6SL5 — position and weather

sailwx.info

Track history (hours):
 
Tides and Currents Weather Stations Pressure Air Temp Water Temp Dewpoint Dewpoint Depression Visibility Wind Speed Wind Dir Waves Ship Positions

Legend Of The Seas

Operator: Royal Caribbean Cruises Ltd

Last reported at 2017-May-27 21:21 UTC. Time now 2017-May-28 12:24 UTC.
Position N 36°09' W 005°00'.

Type: Passenger vessel. MMSI: 311378000.

Date/timePositionNaut miles runAvg speedWind from/ knotsBaromVisibWave heightAir tempDewpointWater temp
2017-May-27 21:21N 36°09' W 005°00'3 9.5
2017-May-27 21:00N 36°09' W 005°04'612.4
2017-May-27 20:30N 36°07' W 005°11'715.0
2017-May-27 20:01N 36°04' W 005°20'5 7.7
2017-May-27 19:24N 36°09' W 005°22'0 0.0
2017-May-27 16:50N 36°09' W 005°22'0 0.0
2017-May-27 16:29N 36°09' W 005°22'0 0.0
2017-May-27 15:59N 36°09' W 005°22'0 0.0
2017-May-27 15:29N 36°09' W 005°22'0 0.0
2017-May-27 14:59N 36°09' W 005°22'0 0.0
2017-May-27 13:59N 36°09' W 005°22'0 0.0
2017-May-27 13:29N 36°09' W 005°22'0 0.0
2017-May-27 08:49N 36°09' W 005°22'0 0.0
2017-May-27 07:55N 36°09' W 005°22'0 0.0
2017-May-27 07:30N 36°09' W 005°22'0 0.0
2017-May-27 07:00N 36°09' W 005°22'0 0.0
2017-May-27 06:31N 36°09' W 005°22'0 0.0
2017-May-27 06:00N 36°09' W 005°22'0 0.0
2017-May-27 05:30N 36°09' W 005°22'2 4.0
2017-May-27 04:58N 36°07' W 005°22'510.1
2017-May-27 04:30N 36°02' W 005°20'510.3
2017-May-27 04:01N 35°59' W 005°25'713.0
2017-May-27 03:30N 35°57' W 005°32'17 9.8
2017-May-27 01:49N 35°54' W 005°53'111 4.7
2017-May-26 02:25N 36°41' W 007°57'717.8
2017-May-26 02:01N 36°42' W 008°06'917.7
2017-May-26 01:30N 36°44' W 008°17'917.9
2017-May-26 01:01N 36°45' W 008°28'918.8
2017-May-26 00:31N 36°46' W 008°40'918.5
2017-May-26 00:01N 36°48' W 008°51'1318.0
2017-May-25 23:18N 36°52' W 009°06'717.9
2017-May-25 22:55N 36°57' W 009°12'1118.1
2017-May-25 22:20N 37°07' W 009°15'618.1
2017-May-25 22:00N 37°13' W 009°16'917.9
2017-May-25 21:30N 37°22' W 009°17'918.1
2017-May-25 21:01N 37°31' W 009°18'918.3
2017-May-25 20:31N 37°40' W 009°20'918.2
2017-May-25 20:01N 37°49' W 009°21'918.5
2017-May-25 19:31N 37°58' W 009°23'918.7
2017-May-25 19:01N 38°08' W 009°24'918.7
2017-May-25 18:31N 38°17' W 009°26'918.7
2017-May-25 18:01N 38°26' W 009°25'918.1
2017-May-25 17:31N 38°35' W 009°24'816.4
2017-May-25 17:01N 38°41' W 009°16'611.1
2017-May-25 16:31N 38°42' W 009°09'2 4.1
2017-May-25 16:00N 38°43' W 009°07'0 0.0
2017-May-25 15:31N 38°43' W 009°07'0 0.0
2017-May-25 15:01N 38°43' W 009°07'0 0.0
2017-May-25 14:01N 38°43' W 009°07'0 0.0
2017-May-25 13:31N 38°43' W 009°07'0 0.0
2017-May-25 13:01N 38°43' W 009°07'0 0.0
2017-May-25 12:31N 38°43' W 009°07'0 0.0
2017-May-25 12:01N 38°43' W 009°07'0 0.0
2017-May-25 11:30N 38°43' W 009°07'0 0.0
2017-May-25 11:01N 38°43' W 009°07'0 0.0
2017-May-25 10:30N 38°43' W 009°07'0 0.0
2017-May-25 10:00N 38°43' W 009°07'0 0.0
2017-May-25 09:30N 38°43' W 009°07'0 0.0
2017-May-25 09:01N 38°43' W 009°07'0 0.0
2017-May-25 08:30N 38°43' W 009°07'0 0.0
2017-May-25 08:01N 38°43' W 009°07'0 0.0
2017-May-25 07:31N 38°43' W 009°07'0 0.0
2017-May-25 07:01N 38°43' W 009°07'0 1.0
2017-May-25 06:31N 38°42' W 009°08'5 9.2
2017-May-25 06:01N 38°41' W 009°13'510.3
2017-May-25 05:30N 38°39' W 009°19'611.8
2017-May-25 05:00N 38°36' W 009°26'713.4
2017-May-25 04:31N 38°36' W 009°35'612.8
2017-May-25 04:00N 38°39' W 009°42'715.1
2017-May-25 03:31N 38°46' W 009°43'815.5
2017-May-25 03:01N 38°54' W 009°44'815.5
2017-May-25 02:30N 39°02' W 009°45'815.2
2017-May-25 02:01N 39°09' W 009°44'815.3
2017-May-25 01:31N 39°17' W 009°44'815.3
2017-May-25 01:00N 39°25' W 009°43'815.9
2017-May-25 00:31N 39°32' W 009°42'815.5
2017-May-25 00:00N 39°40' W 009°39'815.5
2017-May-24 23:30N 39°47' W 009°34'915.4
2017-May-24 22:54N 39°55' W 009°29'615.5
2017-May-24 22:29N 40°01' W 009°26'715.5
2017-May-24 22:00N 40°08' W 009°22'815.4
2017-May-24 21:29N 40°15' W 009°18'815.4
2017-May-24 20:58N 40°23' W 009°13'715.1
2017-May-24 20:30N 40°29' W 009°10'915.1
2017-May-24 19:54N 40°38' W 009°05'24 0.6
2017-May-22 23:50N 40°25' W 009°33'618.0
2017-May-22 23:30N 40°19' W 009°34'918.1
2017-May-22 23:01N 40°11' W 009°38'1018.2
2017-May-22 22:29N 40°01' W 009°41'918.3
2017-May-22 22:00N 39°53' W 009°43'816.8
2017-May-22 21:30N 39°45' W 009°46'917.9
2017-May-22 20:59N 39°36' W 009°48'918.1
2017-May-22 20:30N 39°28' W 009°52'918.5
2017-May-22 20:00N 39°18' W 009°52'918.7
2017-May-22 19:31N 39°09' W 009°52'918.8
2017-May-22 19:01N 38°60' W 009°51'918.7
2017-May-22 18:31N 38°50' W 009°50'918.7
2017-May-22 18:00N 38°41' W 009°49'918.7
2017-May-22 17:31N 38°32' W 009°46'918.8
2017-May-22 17:01N 38°23' W 009°44'918.6
2017-May-22 16:30N 38°14' W 009°41'918.8
2017-May-22 16:00N 38°04' W 009°38'918.4
2017-May-22 15:30N 37°56' W 009°36'918.0
2017-May-22 15:00N 37°47' W 009°33'1818.0
2017-May-22 14:00N 37°29' W 009°28'918.6
2017-May-22 13:30N 37°20' W 009°26'1418.4
2017-May-22 12:44N 37°06' W 009°22'518.3
2017-May-22 12:28N 37°01' W 009°21'818.5
2017-May-22 12:00N 36°53' W 009°17'918.7
2017-May-22 11:30N 36°46' W 009°10'918.8
2017-May-22 11:00N 36°43' W 008°59'1019.2
2017-May-22 10:30N 36°41' W 008°47'919.1
2017-May-22 10:00N 36°38' W 008°36'1319.0
2017-May-22 09:19N 36°33' W 008°21'1018.9
2017-May-22 08:47N 36°30' W 008°09'519.0
2017-May-22 08:30N 36°28' W 008°03'12219.7
2017-May-22 02:18N 35°58' W 005°36'517.8
2017-May-22 02:00N 35°60' W 005°30'1019.1
2017-May-22 01:30N 36°02' W 005°19'160 5.4
2017-May-20 19:36N 36°33' W 002°04'416.1
2017-May-20 19:22N 36°35' W 002°01'1016.2
2017-May-20 18:46N 36°43' W 001°53'416.3
2017-May-20 18:30N 36°46' W 001°50'2415.8
2017-May-20 16:57N 37°05' W 001°30'715.8
2017-May-20 16:30N 37°10' W 001°24'815.7
2017-May-20 16:00N 37°16' W 001°18'815.8
2017-May-20 15:30N 37°22' W 001°11'16 1.5
2017-May-20 04:29N 37°31' W 000°54'612.7
2017-May-20 04:00N 37°31' W 000°46'612.7
2017-May-20 03:30N 37°33' W 000°39'612.4
2017-May-20 03:00N 37°36' W 000°32'713.5
2017-May-20 02:30N 37°42' W 000°27'913.7
2017-May-20 01:49N 37°50' W 000°21'713.2
2017-May-20 01:17N 37°55' W 000°16'8710.7
2017-May-19 17:10N 39°22' W 000°11'212.3
2017-May-19 16:59N 39°24' W 000°13'510.8
2017-May-19 16:30N 39°26' W 000°19'1 2.3
2017-May-19 15:55N 39°27' W 000°19'0 0.0
2017-May-19 15:25N 39°27' W 000°19'0 0.0
2017-May-19 14:49N 39°27' W 000°19'0 0.0
2017-May-19 13:55N 39°27' W 000°19'0 0.0
2017-May-19 13:25N 39°27' W 000°19'0 0.0
2017-May-19 12:49N 39°27' W 000°19'0 0.0
2017-May-19 12:19N 39°27' W 000°19'0 0.0
2017-May-19 11:55N 39°27' W 000°19'0 0.0
2017-May-19 11:19N 39°27' W 000°19'0 0.0
2017-May-19 10:55N 39°27' W 000°19'0 0.0
2017-May-19 10:19N 39°27' W 000°19'0 0.0
2017-May-19 09:49N 39°27' W 000°19'0 0.0
2017-May-19 09:19N 39°27' W 000°19'0 0.0
2017-May-19 08:55N 39°27' W 000°19'0 0.0
2017-May-19 08:19N 39°27' W 000°19'0 0.0
2017-May-19 07:55N 39°27' W 000°19'0 0.0
2017-May-19 07:25N 39°27' W 000°19'0 0.0
2017-May-19 06:37N 39°27' W 000°19'0 0.0
2017-May-19 06:13N 39°27' W 000°19'0 0.0
2017-May-19 05:58N 39°27' W 000°19'1 1.3
2017-May-19 05:31N 39°27' W 000°19'3 6.0
2017-May-19 05:00N 39°25' W 000°16'612.1
2017-May-19 04:30N 39°26' W 000°09'815.6
2017-May-19 04:00N 39°33' W 000°03'5916.1
2017-May-19 00:20N 40°14' E 000°53'516.3
2017-May-19 00:00N 40°17' E 000°58'816.6
2017-May-18 23:30N 40°22' E 001°07'816.4
2017-May-18 23:00N 40°27' E 001°16'816.3
2017-May-18 22:30N 40°31' E 001°25'815.9
2017-May-18 22:00N 40°36' E 001°33'815.9
2017-May-18 21:30N 40°42' E 001°40'917.9
2017-May-18 21:00N 40°49' E 001°47'1019.1
2017-May-18 20:30N 40°57' E 001°55'918.9
2017-May-18 20:00N 41°04' E 002°02'1814.0
2017-May-18 18:42N 41°22' E 002°11'0 1.3
2017-May-18 18:31N 41°22' E 002°11'0 0.1
2017-May-18 17:59N 41°22' E 002°11'0 0.0
2017-May-18 17:29N 41°22' E 002°11'0 0.0
2017-May-18 16:53N 41°22' E 002°11'0 0.0
2017-May-18 16:29N 41°22' E 002°11'0 0.0
2017-May-18 15:53N 41°22' E 002°11'0 0.0
2017-May-18 15:29N 41°22' E 002°11'0 0.0
2017-May-18 14:59N 41°22' E 002°11'0 0.0
2017-May-18 13:59N 41°22' E 002°11'0 0.0
2017-May-18 13:29N 41°22' E 002°11'0 0.0
2017-May-18 12:59N 41°22' E 002°11'0 0.0
2017-May-18 11:53N 41°22' E 002°11'0 0.0
2017-May-18 11:23N 41°22' E 002°11'0 0.0
2017-May-18 10:26N 41°22' E 002°11'0 0.0
2017-May-18 09:41N 41°22' E 002°11'0 0.0
2017-May-18 09:29N 41°22' E 002°11'0 0.0
2017-May-18 08:53N 41°22' E 002°11'0 0.0
2017-May-18 07:53N 41°22' E 002°11'2 4.7
2017-May-18 07:30N 41°20' E 002°10'4 8.9
2017-May-18 07:00N 41°16' E 002°13'816.1
2017-May-18 06:30N 41°18' E 002°23'917.7
2017-May-18 06:00N 41°21' E 002°34'917.4
2017-May-18 05:30N 41°25' E 002°45'917.4
2017-May-18 05:00N 41°29' E 002°55'917.8
2017-May-18 04:30N 41°33' E 003°06'1019.5
2017-May-18 04:00N 41°37' E 003°17'1019.6
2017-May-18 03:30N 41°42' E 003°29'1019.5
2017-May-18 03:01N 41°46' E 003°41'1019.2
2017-May-18 02:31N 41°50' E 003°53'1019.2
2017-May-18 02:01N 41°54' E 004°04'1019.2
2017-May-18 01:31N 41°58' E 004°16'1019.2
2017-May-18 01:01N 42°02' E 004°28'1019.0
2017-May-18 00:31N 42°06' E 004°39'1019.1
2017-May-18 00:01N 42°10' E 004°51'1019.2
2017-May-17 23:31N 42°14' E 005°03'1019.4
2017-May-17 23:00N 42°18' E 005°15'1019.3
2017-May-17 22:30N 42°22' E 005°27'1019.2
2017-May-17 22:00N 42°26' E 005°38'1019.1
2017-May-17 21:30N 42°31' E 005°50'  
Track history (hours):
 
Tides and Currents Weather Stations Pressure Air Temp Water Temp Dewpoint Dewpoint Depression Visibility Wind Speed Wind Dir Waves Ship Positions

Legend Of The Seas

Operator: Royal Caribbean Cruises Ltd

Last reported at 2017-May-27 21:21 UTC. Time now 2017-May-28 12:24 UTC.
Position N 36°09' W 005°00'.

Type: Passenger vessel. MMSI: 311378000.

Date/timePositionNaut miles runAvg speedWind from/ knotsBaromVisibWave heightAir tempDewpointWater temp
2017-May-27 21:21N 36°09' W 005°00'3 9.5
2017-May-27 21:00N 36°09' W 005°04'612.4
2017-May-27 20:30N 36°07' W 005°11'715.0
2017-May-27 20:01N 36°04' W 005°20'5 7.7
2017-May-27 19:24N 36°09' W 005°22'0 0.0
2017-May-27 16:50N 36°09' W 005°22'0 0.0
2017-May-27 16:29N 36°09' W 005°22'0 0.0
2017-May-27 15:59N 36°09' W 005°22'0 0.0
2017-May-27 15:29N 36°09' W 005°22'0 0.0
2017-May-27 14:59N 36°09' W 005°22'0 0.0
2017-May-27 13:59N 36°09' W 005°22'0 0.0
2017-May-27 13:29N 36°09' W 005°22'0 0.0
2017-May-27 08:49N 36°09' W 005°22'0 0.0
2017-May-27 07:55N 36°09' W 005°22'0 0.0
2017-May-27 07:30N 36°09' W 005°22'0 0.0
2017-May-27 07:00N 36°09' W 005°22'0 0.0
2017-May-27 06:31N 36°09' W 005°22'0 0.0
2017-May-27 06:00N 36°09' W 005°22'0 0.0
2017-May-27 05:30N 36°09' W 005°22'2 4.0
2017-May-27 04:58N 36°07' W 005°22'510.1
2017-May-27 04:30N 36°02' W 005°20'510.3
2017-May-27 04:01N 35°59' W 005°25'713.0
2017-May-27 03:30N 35°57' W 005°32'17 9.8
2017-May-27 01:49N 35°54' W 005°53'111 4.7
2017-May-26 02:25N 36°41' W 007°57'717.8
2017-May-26 02:01N 36°42' W 008°06'917.7
2017-May-26 01:30N 36°44' W 008°17'917.9
2017-May-26 01:01N 36°45' W 008°28'918.8
2017-May-26 00:31N 36°46' W 008°40'918.5
2017-May-26 00:01N 36°48' W 008°51'1318.0
2017-May-25 23:18N 36°52' W 009°06'717.9
2017-May-25 22:55N 36°57' W 009°12'1118.1
2017-May-25 22:20N 37°07' W 009°15'618.1
2017-May-25 22:00N 37°13' W 009°16'917.9
2017-May-25 21:30N 37°22' W 009°17'918.1
2017-May-25 21:01N 37°31' W 009°18'918.3
2017-May-25 20:31N 37°40' W 009°20'918.2
2017-May-25 20:01N 37°49' W 009°21'918.5
2017-May-25 19:31N 37°58' W 009°23'918.7
2017-May-25 19:01N 38°08' W 009°24'918.7
2017-May-25 18:31N 38°17' W 009°26'918.7
2017-May-25 18:01N 38°26' W 009°25'918.1
2017-May-25 17:31N 38°35' W 009°24'816.4
2017-May-25 17:01N 38°41' W 009°16'611.1
2017-May-25 16:31N 38°42' W 009°09'2 4.1
2017-May-25 16:00N 38°43' W 009°07'0 0.0
2017-May-25 15:31N 38°43' W 009°07'0 0.0
2017-May-25 15:01N 38°43' W 009°07'0 0.0
2017-May-25 14:01N 38°43' W 009°07'0 0.0
2017-May-25 13:31N 38°43' W 009°07'0 0.0
2017-May-25 13:01N 38°43' W 009°07'0 0.0
2017-May-25 12:31N 38°43' W 009°07'0 0.0
2017-May-25 12:01N 38°43' W 009°07'0 0.0
2017-May-25 11:30N 38°43' W 009°07'0 0.0
2017-May-25 11:01N 38°43' W 009°07'0 0.0
2017-May-25 10:30N 38°43' W 009°07'0 0.0
2017-May-25 10:00N 38°43' W 009°07'0 0.0
2017-May-25 09:30N 38°43' W 009°07'0 0.0
2017-May-25 09:01N 38°43' W 009°07'0 0.0
2017-May-25 08:30N 38°43' W 009°07'0 0.0
2017-May-25 08:01N 38°43' W 009°07'0 0.0
2017-May-25 07:31N 38°43' W 009°07'0 0.0
2017-May-25 07:01N 38°43' W 009°07'0 1.0
2017-May-25 06:31N 38°42' W 009°08'5 9.2
2017-May-25 06:01N 38°41' W 009°13'510.3
2017-May-25 05:30N 38°39' W 009°19'611.8
2017-May-25 05:00N 38°36' W 009°26'713.4
2017-May-25 04:31N 38°36' W 009°35'612.8
2017-May-25 04:00N 38°39' W 009°42'715.1
2017-May-25 03:31N 38°46' W 009°43'815.5
2017-May-25 03:01N 38°54' W 009°44'815.5
2017-May-25 02:30N 39°02' W 009°45'815.2
2017-May-25 02:01N 39°09' W 009°44'815.3
2017-May-25 01:31N 39°17' W 009°44'815.3
2017-May-25 01:00N 39°25' W 009°43'815.9
2017-May-25 00:31N 39°32' W 009°42'815.5
2017-May-25 00:00N 39°40' W 009°39'815.5
2017-May-24 23:30N 39°47' W 009°34'915.4
2017-May-24 22:54N 39°55' W 009°29'615.5
2017-May-24 22:29N 40°01' W 009°26'715.5
2017-May-24 22:00N 40°08' W 009°22'815.4
2017-May-24 21:29N 40°15' W 009°18'815.4
2017-May-24 20:58N 40°23' W 009°13'715.1
2017-May-24 20:30N 40°29' W 009°10'915.1
2017-May-24 19:54N 40°38' W 009°05'24 0.6
2017-May-22 23:50N 40°25' W 009°33'618.0
2017-May-22 23:30N 40°19' W 009°34'918.1
2017-May-22 23:01N 40°11' W 009°38'1018.2
2017-May-22 22:29N 40°01' W 009°41'918.3
2017-May-22 22:00N 39°53' W 009°43'816.8
2017-May-22 21:30N 39°45' W 009°46'917.9
2017-May-22 20:59N 39°36' W 009°48'918.1
2017-May-22 20:30N 39°28' W 009°52'918.5
2017-May-22 20:00N 39°18' W 009°52'918.7
2017-May-22 19:31N 39°09' W 009°52'918.8
2017-May-22 19:01N 38°60' W 009°51'918.7
2017-May-22 18:31N 38°50' W 009°50'918.7
2017-May-22 18:00N 38°41' W 009°49'918.7
2017-May-22 17:31N 38°32' W 009°46'918.8
2017-May-22 17:01N 38°23' W 009°44'918.6
2017-May-22 16:30N 38°14' W 009°41'918.8
2017-May-22 16:00N 38°04' W 009°38'918.4
2017-May-22 15:30N 37°56' W 009°36'918.0
2017-May-22 15:00N 37°47' W 009°33'1818.0
2017-May-22 14:00N 37°29' W 009°28'918.6
2017-May-22 13:30N 37°20' W 009°26'1418.4
2017-May-22 12:44N 37°06' W 009°22'518.3
2017-May-22 12:28N 37°01' W 009°21'818.5
2017-May-22 12:00N 36°53' W 009°17'918.7
2017-May-22 11:30N 36°46' W 009°10'918.8
2017-May-22 11:00N 36°43' W 008°59'1019.2
2017-May-22 10:30N 36°41' W 008°47'919.1
2017-May-22 10:00N 36°38' W 008°36'1319.0
2017-May-22 09:19N 36°33' W 008°21'1018.9
2017-May-22 08:47N 36°30' W 008°09'519.0
2017-May-22 08:30N 36°28' W 008°03'12219.7
2017-May-22 02:18N 35°58' W 005°36'517.8
2017-May-22 02:00N 35°60' W 005°30'1019.1
2017-May-22 01:30N 36°02' W 005°19'160 5.4
2017-May-20 19:36N 36°33' W 002°04'416.1
2017-May-20 19:22N 36°35' W 002°01'1016.2
2017-May-20 18:46N 36°43' W 001°53'416.3
2017-May-20 18:30N 36°46' W 001°50'2415.8
2017-May-20 16:57N 37°05' W 001°30'715.8
2017-May-20 16:30N 37°10' W 001°24'815.7
2017-May-20 16:00N 37°16' W 001°18'815.8
2017-May-20 15:30N 37°22' W 001°11'16 1.5
2017-May-20 04:29N 37°31' W 000°54'612.7
2017-May-20 04:00N 37°31' W 000°46'612.7
2017-May-20 03:30N 37°33' W 000°39'612.4
2017-May-20 03:00N 37°36' W 000°32'713.5
2017-May-20 02:30N 37°42' W 000°27'913.7
2017-May-20 01:49N 37°50' W 000°21'713.2
2017-May-20 01:17N 37°55' W 000°16'8710.7
2017-May-19 17:10N 39°22' W 000°11'212.3
2017-May-19 16:59N 39°24' W 000°13'510.8
2017-May-19 16:30N 39°26' W 000°19'1 2.3
2017-May-19 15:55N 39°27' W 000°19'0 0.0
2017-May-19 15:25N 39°27' W 000°19'0 0.0
2017-May-19 14:49N 39°27' W 000°19'0 0.0
2017-May-19 13:55N 39°27' W 000°19'0 0.0
2017-May-19 13:25N 39°27' W 000°19'0 0.0
2017-May-19 12:49N 39°27' W 000°19'0 0.0
2017-May-19 12:19N 39°27' W 000°19'0 0.0
2017-May-19 11:55N 39°27' W 000°19'0 0.0
2017-May-19 11:19N 39°27' W 000°19'0 0.0
2017-May-19 10:55N 39°27' W 000°19'0 0.0
2017-May-19 10:19N 39°27' W 000°19'0 0.0
2017-May-19 09:49N 39°27' W 000°19'0 0.0
2017-May-19 09:19N 39°27' W 000°19'0 0.0
2017-May-19 08:55N 39°27' W 000°19'0 0.0
2017-May-19 08:19N 39°27' W 000°19'0 0.0
2017-May-19 07:55N 39°27' W 000°19'0 0.0
2017-May-19 07:25N 39°27' W 000°19'0 0.0
2017-May-19 06:37N 39°27' W 000°19'0 0.0
2017-May-19 06:13N 39°27' W 000°19'0 0.0
2017-May-19 05:58N 39°27' W 000°19'1 1.3
2017-May-19 05:31N 39°27' W 000°19'3 6.0
2017-May-19 05:00N 39°25' W 000°16'612.1
2017-May-19 04:30N 39°26' W 000°09'815.6
2017-May-19 04:00N 39°33' W 000°03'5916.1
2017-May-19 00:20N 40°14' E 000°53'516.3
2017-May-19 00:00N 40°17' E 000°58'816.6
2017-May-18 23:30N 40°22' E 001°07'816.4
2017-May-18 23:00N 40°27' E 001°16'816.3
2017-May-18 22:30N 40°31' E 001°25'815.9
2017-May-18 22:00N 40°36' E 001°33'815.9
2017-May-18 21:30N 40°42' E 001°40'917.9
2017-May-18 21:00N 40°49' E 001°47'1019.1
2017-May-18 20:30N 40°57' E 001°55'918.9
2017-May-18 20:00N 41°04' E 002°02'1814.0
2017-May-18 18:42N 41°22' E 002°11'0 1.3
2017-May-18 18:31N 41°22' E 002°11'0 0.1
2017-May-18 17:59N 41°22' E 002°11'0 0.0
2017-May-18 17:29N 41°22' E 002°11'0 0.0
2017-May-18 16:53N 41°22' E 002°11'0 0.0
2017-May-18 16:29N 41°22' E 002°11'0 0.0
2017-May-18 15:53N 41°22' E 002°11'0 0.0
2017-May-18 15:29N 41°22' E 002°11'0 0.0
2017-May-18 14:59N 41°22' E 002°11'0 0.0
2017-May-18 13:59N 41°22' E 002°11'0 0.0
2017-May-18 13:29N 41°22' E 002°11'0 0.0
2017-May-18 12:59N 41°22' E 002°11'0 0.0
2017-May-18 11:53N 41°22' E 002°11'0 0.0
2017-May-18 11:23N 41°22' E 002°11'0 0.0
2017-May-18 10:26N 41°22' E 002°11'0 0.0
2017-May-18 09:41N 41°22' E 002°11'0 0.0
2017-May-18 09:29N 41°22' E 002°11'0 0.0
2017-May-18 08:53N 41°22' E 002°11'0 0.0
2017-May-18 07:53N 41°22' E 002°11'2 4.7
2017-May-18 07:30N 41°20' E 002°10'4 8.9
2017-May-18 07:00N 41°16' E 002°13'816.1
2017-May-18 06:30N 41°18' E 002°23'917.7
2017-May-18 06:00N 41°21' E 002°34'917.4
2017-May-18 05:30N 41°25' E 002°45'917.4
2017-May-18 05:00N 41°29' E 002°55'917.8
2017-May-18 04:30N 41°33' E 003°06'1019.5
2017-May-18 04:00N 41°37' E 003°17'1019.6
2017-May-18 03:30N 41°42' E 003°29'1019.5
2017-May-18 03:01N 41°46' E 003°41'1019.2
2017-May-18 02:31N 41°50' E 003°53'1019.2
2017-May-18 02:01N 41°54' E 004°04'1019.2
2017-May-18 01:31N 41°58' E 004°16'1019.2
2017-May-18 01:01N 42°02' E 004°28'1019.0
2017-May-18 00:31N 42°06' E 004°39'1019.1
2017-May-18 00:01N 42°10' E 004°51'1019.2
2017-May-17 23:31N 42°14' E 005°03'1019.4
2017-May-17 23:00N 42°18' E 005°15'1019.3
2017-May-17 22:30N 42°22' E 005°27'1019.2
2017-May-17 22:00N 42°26' E 005°38'1019.1
2017-May-17 21:30N 42°31' E 005°50'  

Dump ship's entire track history